Time;durP1;ratioP1;P1;durP2;ratioP2;P2;SDS_P1;SDS_P2;PMS_P1;PMS_P2;Temp;Humidity;BMP_temperature;BMP_pressure;BME280_temperature;BME280_humidity;BME280_pressure;Samples;Min_cycle;Max_cycle;Signal;HPM_P1;HPM_P2
2023/01/14 00:01:27;;;;;;;30.10;15.20;;;;;;;4.72;72.73;94188.78;5002607;28;20274;-79
2023/01/14 00:03:53;;;;;;;31.90;14.98;;;;;;;4.73;72.83;94177.16;5002695;28;20189;-79
2023/01/14 00:06:24;;;;;;;35.45;16.33;;;;;;;4.75;72.70;94182.19;5002842;28;20033;-79
2023/01/14 00:08:57;;;;;;;30.75;14.18;;;;;;;4.77;72.63;94182.72;5003470;28;20313;-78
2023/01/14 00:14:09;;;;;;;26.13;14.25;;;;;;;4.75;72.92;94182.19;5006217;28;20068;-79
2023/01/14 00:16:34;;;;;;;30.35;15.52;;;;;;;4.77;72.98;94185.34;5006129;28;20243;-79
2023/01/14 00:19:00;;;;;;;35.22;17.45;;;;;;;4.80;72.84;94177.69;5006072;28;20022;-79
2023/01/14 00:21:25;;;;;;;31.15;15.77;;;;;;;4.80;72.91;94182.16;5005899;28;20065;-79
2023/01/14 00:23:53;;;;;;;30.23;14.63;;;;;;;4.82;72.96;94174.75;5005985;28;20026;-79
2023/01/14 00:26:20;;;;;;;31.20;15.85;;;;;;;4.81;72.85;94173.19;5005801;28;20022;-80
2023/01/14 00:28:46;;;;;;;28.85;15.52;;;;;;;4.80;72.97;94169.75;5006034;28;20208;-80
2023/01/14 00:31:15;;;;;;;31.30;14.63;;;;;;;4.82;72.79;94172.13;5005872;28;20041;-81
2023/01/14 00:33:41;;;;;;;32.13;14.43;;;;;;;4.81;72.38;94163.41;5005987;28;20022;-80
2023/01/14 00:36:10;;;;;;;25.55;13.48;;;;;;;4.82;72.09;94159.72;5005639;28;20279;-80
2023/01/14 00:38:36;;;;;;;36.08;14.98;;;;;;;4.85;71.82;94168.16;5005754;28;20126;-80
2023/01/14 00:41:17;;;;;;;34.55;16.25;;;;;;;4.84;71.96;94167.34;5005863;28;20097;-80
2023/01/14 00:43:46;;;;;;;36.00;17.63;;;;;;;4.84;72.07;94162.06;5005654;28;20032;-80
2023/01/14 00:46:17;;;;;;;38.38;17.80;;;;;;;4.83;72.18;94168.44;5005601;28;20026;-80
2023/01/14 00:48:43;;;;;;;44.35;18.40;;;;;;;4.83;72.39;94165.78;5005420;28;20057;-80
2023/01/14 00:51:10;;;;;;;43.78;18.23;;;;;;;4.86;72.48;94167.88;5005447;28;20168;-80
2023/01/14 00:53:37;;;;;;;37.35;18.73;;;;;;;4.87;72.57;94166.81;5004321;28;20037;-80
2023/01/14 00:56:03;;;;;;;41.17;18.70;;;;;;;4.86;72.66;94159.16;5005487;28;20049;-79
2023/01/14 00:58:28;;;;;;;40.40;19.23;;;;;;;4.87;72.71;94169.47;5005323;28;20193;-79
2023/01/14 01:00:55;;;;;;;43.05;18.25;;;;;;;4.91;73.01;94172.38;5004134;28;20050;-79
2023/01/14 01:03:21;;;;;;;44.72;19.92;;;;;;;4.90;73.02;94170.78;5005315;28;20041;-79
2023/01/14 01:05:47;;;;;;;35.00;18.15;;;;;;;4.89;73.04;94175.28;5005085;28;20316;-79
2023/01/14 01:08:16;;;;;;;41.45;20.67;;;;;;;4.88;73.12;94173.69;5005065;28;20033;-79
2023/01/14 01:10:43;;;;;;;37.20;18.33;;;;;;;4.91;73.39;94167.88;5005211;28;20023;-80
2023/01/14 01:13:09;;;;;;;45.35;19.90;;;;;;;4.92;73.23;94173.94;5005083;28;20025;-79
2023/01/14 01:15:36;;;;;;;40.20;19.40;;;;;;;4.92;73.06;94172.06;5003823;28;20030;-79
2023/01/14 01:18:03;;;;;;;40.45;19.58;;;;;;;4.92;72.99;94174.72;5005070;28;20348;-79
2023/01/14 01:20:29;;;;;;;37.83;18.02;;;;;;;4.91;73.05;94178.44;5004805;28;20034;-79
2023/01/14 01:22:55;;;;;;;36.15;18.88;;;;;;;4.93;73.02;94171.03;5004853;28;20030;-78
2023/01/14 01:25:20;;;;;;;37.33;18.02;;;;;;;4.93;73.41;94159.69;5004673;28;20093;-78
2023/01/14 01:27:46;;;;;;;39.42;18.42;;;;;;;4.92;73.22;94158.88;5004838;28;20026;-78
2023/01/14 01:30:13;;;;;;;36.92;18.50;;;;;;;4.94;73.33;94156.75;5004808;28;20085;-78
2023/01/14 01:32:38;;;;;;;43.33;19.42;;;;;;;4.95;73.41;94149.63;5004552;28;20025;-78
2023/01/14 01:35:04;;;;;;;36.80;19.23;;;;;;;4.92;73.63;94153.59;5004573;28;20034;-78
2023/01/14 01:37:30;;;;;;;40.20;18.45;;;;;;;4.92;73.72;94150.16;5004691;28;20042;-78
2023/01/14 01:39:55;;;;;;;34.22;17.63;;;;;;;4.94;73.45;94146.19;5004602;28;20229;-78
2023/01/14 01:42:23;;;;;;;41.33;19.05;;;;;;;4.93;73.69;94149.13;5004319;28;20027;-78
2023/01/14 01:45:19;;;;;;;34.58;17.75;;;;;;;4.92;73.75;94147.53;5004304;28;20097;-79
2023/01/14 01:47:44;;;;;;;33.03;17.42;;;;;;;4.87;73.65;94140.41;5004390;28;20187;-79
2023/01/14 01:50:10;;;;;;;38.83;18.30;;;;;;;4.86;73.58;94143.31;5004600;28;20029;-79
2023/01/14 01:52:35;;;;;;;36.70;18.05;;;;;;;4.83;73.78;94145.44;5004343;28;20018;-79
2023/01/14 01:55:06;;;;;;;34.65;17.20;;;;;;;4.83;73.70;94145.44;5004410;28;20114;-79
2023/01/14 01:57:32;;;;;;;34.15;18.20;;;;;;;4.80;73.65;94130.16;5003194;28;20054;-79
2023/01/14 02:00:01;;;;;;;35.45;18.33;;;;;;;4.73;73.35;94124.34;5004179;28;20033;-79
2023/01/14 02:02:28;;;;;;;38.72;17.73;;;;;;;4.69;73.51;94133.88;5004093;28;20248;-79
2023/01/14 02:04:54;;;;;;;41.60;18.67;;;;;;;4.64;73.58;94125.97;5003999;28;20045;-79
2023/01/14 02:07:25;;;;;;;33.75;17.70;;;;;;;4.59;73.69;94137.31;5004270;28;20109;-79
2023/01/14 02:09:58;;;;;;;36.85;18.17;;;;;;;4.55;73.63;94138.91;5004088;28;20026;-79
2023/01/14 02:12:37;;;;;;;38.20;18.70;;;;;;;4.46;74.03;94137.09;5003735;28;20030;-80
2023/01/14 02:15:31;;;;;;;41.92;19.48;;;;;;;4.42;74.31;94136.84;5004111;28;20037;-80
2023/01/14 02:18:00;;;;;;;39.00;16.98;;;;;;;4.33;74.45;94146.34;5004122;28;20090;-80
2023/01/14 02:20:44;;;;;;;38.72;17.80;;;;;;;4.30;74.84;94141.63;5003984;28;20028;-80
2023/01/14 02:23:40;;;;;;;35.25;17.73;;;;;;;4.25;74.74;94142.41;5002881;28;20034;-80
2023/01/14 02:26:31;;;;;;;37.55;17.10;;;;;;;4.13;75.28;94144.53;5004704;28;20362;-80
2023/01/14 02:29:27;;;;;;;34.38;15.23;;;;;;;4.00;75.76;94138.72;5004199;28;20231;-80
2023/01/14 02:31:54;;;;;;;35.85;17.70;;;;;;;3.92;76.28;94131.34;5003578;28;20314;-80
2023/01/14 02:34:34;;;;;;;41.22;19.00;;;;;;;3.85;76.78;94132.66;5004054;28;20224;-79
2023/01/14 02:37:02;;;;;;;39.75;19.15;;;;;;;3.86;76.98;94131.63;5003900;28;20041;-80
2023/01/14 02:39:37;;;;;;;39.53;19.30;;;;;;;3.85;76.89;94133.47;5003741;28;20204;-80
2023/01/14 02:44:59;;;;;;;32.88;17.13;;;;;;;3.79;76.90;94142.44;5003561;28;20041;-79
2023/01/14 02:47:26;;;;;;;39.42;18.33;;;;;;;3.71;77.34;94141.13;5003621;28;20026;-78
2023/01/14 02:49:56;;;;;;;38.08;18.27;;;;;;;3.70;77.63;94134.25;5003364;28;20046;-78
2023/01/14 02:52:22;;;;;;;39.83;18.20;;;;;;;3.73;77.79;94138.22;5003599;28;20025;-78
2023/01/14 02:55:02;;;;;;;36.58;17.15;;;;;;;3.78;77.52;94141.63;5003370;28;20022;-78
2023/01/14 02:57:51;;;;;;;50.47;18.58;;;;;;;3.82;77.34;94137.41;5003446;28;20022;-78
2023/01/14 03:00:35;;;;;;;38.55;17.25;;;;;;;3.84;77.21;94133.72;5003382;28;20054;-78
2023/01/14 03:03:00;;;;;;;35.30;16.50;;;;;;;3.84;77.12;94137.16;5003491;28;20220;-79
2023/01/14 03:05:54;;;;;;;36.15;18.25;;;;;;;3.86;76.90;94142.16;5003372;28;20041;-78
2023/01/14 03:08:44;;;;;;;35.45;17.17;;;;;;;3.92;76.76;94136.63;5002146;28;20448;-79
2023/01/14 03:11:10;;;;;;;42.45;17.67;;;;;;;3.95;76.86;94130.06;5003272;28;20371;-79
2023/01/14 03:14:07;;;;;;;34.67;18.50;;;;;;;3.99;76.38;94136.38;5003358;28;20018;-79
2023/01/14 03:16:41;;;;;;;40.33;18.48;;;;;;;4.01;76.48;94144.81;4970521;28;20089;-78
2023/01/14 03:19:37;;;;;;;32.17;16.98;;;;;;;4.00;76.30;94145.88;5003129;28;20038;-78
2023/01/14 03:22:04;;;;;;;39.58;17.90;;;;;;;3.92;76.32;94139.25;5001661;28;20060;-78
2023/01/14 03:24:34;;;;;;;40.30;19.02;;;;;;;3.88;76.64;94132.16;5003353;28;20259;-78
2023/01/14 03:27:06;;;;;;;40.13;18.90;;;;;;;3.89;76.64;94120.53;5003299;28;20046;-78
2023/01/14 03:29:42;;;;;;;40.30;19.33;;;;;;;3.90;76.75;94127.41;5003163;28;20022;-77
2023/01/14 03:32:18;;;;;;;39.65;19.10;;;;;;;3.90;76.90;94122.13;5002973;28;20324;-77
2023/01/14 03:35:13;;;;;;;46.80;20.83;;;;;;;3.93;76.99;94122.41;5002991;28;20040;-77
2023/01/14 03:37:45;;;;;;;41.92;20.08;;;;;;;3.93;76.76;94124.22;4999730;28;20120;-77
2023/01/14 03:40:15;;;;;;;39.38;19.50;;;;;;;3.95;76.07;94124.78;5001801;28;20105;-77
2023/01/14 03:42:47;;;;;;;32.10;14.68;;;;;;;3.90;75.07;94127.41;5003578;28;20022;-77
2023/01/14 03:45:19;;;;;;;28.17;13.98;;;;;;;3.85;74.91;94119.47;5006796;28;20130;-77
2023/01/14 03:47:45;;;;;;;17.15;8.68;;;;;;;3.82;73.76;94118.16;5006461;28;20244;-77
2023/01/14 03:50:15;;;;;;;15.70;6.97;;;;;;;3.80;72.88;94117.63;5006642;28;20045;-77
2023/01/14 03:53:01;;;;;;;17.08;8.40;;;;;;;3.80;73.09;94118.44;5006461;28;20095;-77
2023/01/14 03:55:29;;;;;;;14.98;8.57;;;;;;;3.87;73.19;94128.72;5006058;28;20045;-77
2023/01/14 03:58:06;;;;;;;17.75;9.00;;;;;;;3.92;73.31;94117.38;5005329;28;20057;-77
2023/01/14 04:00:44;;;;;;;18.35;10.30;;;;;;;3.99;73.44;94117.91;5006495;28;20022;-77
2023/01/14 04:03:14;;;;;;;21.55;10.43;;;;;;;4.03;73.66;94124.25;5005037;28;20029;-77
2023/01/14 04:05:40;;;;;;;33.83;14.68;;;;;;;4.07;74.08;94122.66;5005103;28;20022;-77
2023/01/14 04:08:06;;;;;;;33.30;16.88;;;;;;;4.12;74.42;94127.91;5006199;28;20030;-77
2023/01/14 04:10:33;;;;;;;35.40;17.67;;;;;;;4.15;74.73;94118.66;5006549;28;20022;-77
2023/01/14 04:15:42;;;;;;;35.90;16.92;;;;;;;4.19;75.43;94117.91;5006049;28;20033;-78
2023/01/14 04:18:08;;;;;;;36.30;16.55;;;;;;;4.26;75.24;94124.75;5006163;28;20053;-78
2023/01/14 04:20:33;;;;;;;36.83;17.85;;;;;;;4.28;75.28;94104.16;5006065;28;20038;-77
2023/01/14 04:22:58;;;;;;;39.22;19.55;;;;;;;4.32;75.31;94111.25;5005981;28;20033;-78
2023/01/14 04:25:24;;;;;;;42.47;18.88;;;;;;;4.35;75.32;94102.81;5005805;28;20033;-77
2023/01/14 04:27:49;;;;;;;41.28;20.23;;;;;;;4.35;75.53;94108.06;5005967;28;20081;-77
2023/01/14 04:30:15;;;;;;;36.22;18.75;;;;;;;4.37;75.71;94110.47;5005945;28;20026;-78
2023/01/14 04:32:41;;;;;;;37.58;18.55;;;;;;;4.39;75.62;94108.34;5005886;28;20363;-78
2023/01/14 04:35:07;;;;;;;44.17;19.10;;;;;;;4.37;75.66;94105.19;5005629;28;20068;-78
2023/01/14 04:37:32;;;;;;;42.63;19.40;;;;;;;4.39;75.50;94109.13;5005865;28;20337;-78
2023/01/14 04:39:58;;;;;;;37.80;18.88;;;;;;;4.39;75.35;94103.06;5005726;28;20038;-78
2023/01/14 04:42:26;;;;;;;39.90;20.48;;;;;;;4.33;75.53;94101.50;5005447;28;20042;-77
2023/01/14 04:44:52;;;;;;;35.10;18.70;;;;;;;4.32;75.50;94103.34;5005685;28;20228;-77
2023/01/14 04:47:17;;;;;;;41.22;19.80;;;;;;;4.33;75.40;94107.56;5005452;28;20057;-77
2023/01/14 04:49:43;;;;;;;36.85;19.52;;;;;;;4.32;75.53;94107.84;5005453;28;20030;-77
2023/01/14 04:52:08;;;;;;;37.20;18.70;;;;;;;4.33;75.61;94112.84;5005293;28;20034;-79
2023/01/14 04:54:34;;;;;;;45.20;18.23;;;;;;;4.33;75.53;94115.47;5004926;28;20022;-79
2023/01/14 04:56:59;;;;;;;34.05;18.80;;;;;;;4.34;75.46;94111.00;5005453;28;20026;-78
2023/01/14 04:59:25;;;;;;;40.92;19.45;;;;;;;4.34;75.50;94105.72;5005045;28;20316;-79
2023/01/14 05:01:50;;;;;;;42.85;19.83;;;;;;;4.34;75.57;94114.44;5005343;28;20069;-78
2023/01/14 05:04:16;;;;;;;37.55;19.30;;;;;;;4.35;75.39;94113.34;5005359;28;20320;-78
2023/01/14 05:06:41;;;;;;;38.13;18.98;;;;;;;4.36;75.32;94119.44;5005320;28;20374;-78
2023/01/14 05:09:07;;;;;;;39.25;19.35;;;;;;;4.35;75.55;94115.22;5005044;28;20026;-78
2023/01/14 05:11:32;;;;;;;37.22;18.05;;;;;;;4.38;75.34;94115.47;5005092;28;20069;-78
2023/01/14 05:13:58;;;;;;;28.88;16.02;;;;;;;4.42;75.07;94116.53;5005045;28;20249;-78
2023/01/14 05:16:23;;;;;;;41.03;18.00;;;;;;;4.42;75.17;94113.88;5005153;28;20060;-79
2023/01/14 05:18:50;;;;;;;34.83;16.83;;;;;;;4.41;74.96;94122.84;5004760;28;20213;-78
2023/01/14 05:21:17;;;;;;;35.13;17.30;;;;;;;4.40;74.92;94104.66;5004853;28;20371;-78
2023/01/14 05:23:43;;;;;;;31.40;15.95;;;;;;;4.41;74.70;94111.50;5005017;28;20110;-79
2023/01/14 05:26:09;;;;;;;31.42;15.10;;;;;;;4.40;74.62;94118.63;5004756;28;20061;-79
2023/01/14 05:28:34;;;;;;;22.33;12.95;;;;;;;4.38;74.42;94118.13;5004728;28;20041;-78
2023/01/14 05:31:00;;;;;;;27.67;13.50;;;;;;;4.40;73.89;94120.50;5004650;28;20100;-78
2023/01/14 05:33:25;;;;;;;29.10;14.68;;;;;;;4.36;73.74;94117.59;5002983;28;20335;-77
2023/01/14 05:35:58;;;;;;;19.67;11.15;;;;;;;4.32;73.62;94113.13;5003016;28;20041;-78
2023/01/14 05:38:25;;;;;;;15.95;8.77;;;;;;;4.33;73.06;94130.53;5004669;28;20040;-78
2023/01/14 05:40:51;;;;;;;15.88;8.93;;;;;;;4.32;72.48;94124.47;5004588;28;20030;-78
2023/01/14 05:46:06;;;;;;;15.95;7.38;;;;;;;4.33;71.87;94127.88;5004708;28;20056;-78
2023/01/14 05:48:32;;;;;;;14.63;7.53;;;;;;;4.31;71.63;94130.78;5004548;28;20157;-78
2023/01/14 05:50:59;;;;;;;15.45;7.95;;;;;;;4.33;71.78;94126.03;5004328;28;20027;-79
2023/01/14 05:53:27;;;;;;;12.85;6.72;;;;;;;4.33;71.61;94133.94;5003178;28;20413;-79
2023/01/14 05:55:53;;;;;;;15.10;7.88;;;;;;;4.38;71.06;94128.66;5004261;28;20029;-79
2023/01/14 05:58:18;;;;;;;19.02;9.60;;;;;;;4.39;71.08;94126.81;5004153;28;20223;-79
2023/01/14 06:06:25;;;;;;;11.93;6.85;;;;;;;4.42;70.74;94127.06;5003358;28;20045;-80
2023/01/14 06:08:53;;;;;;;13.13;6.68;;;;;;;4.45;70.49;94130.25;5004001;28;20061;-80
2023/01/14 06:11:20;;;;;;;11.80;6.00;;;;;;;4.47;70.46;94131.53;5004108;28;20060;-80
2023/01/14 06:13:48;;;;;;;17.42;6.80;;;;;;;4.50;70.48;94133.66;5003987;28;20026;-80
2023/01/14 06:16:14;;;;;;;14.68;8.25;;;;;;;4.51;70.57;94124.66;5003893;28;20050;-79
2023/01/14 06:18:42;;;;;;;24.67;11.95;;;;;;;4.52;70.73;94131.56;5003826;28;20025;-79
2023/01/14 06:21:10;;;;;;;27.13;13.43;;;;;;;4.53;70.82;94138.41;5003851;28;20093;-79
2023/01/14 06:23:35;;;;;;;39.47;18.50;;;;;;;4.50;70.90;94128.38;5004083;28;20133;-79
2023/01/14 06:26:00;;;;;;;29.98;15.00;;;;;;;4.48;71.50;94132.34;5004032;28;20216;-79
2023/01/14 06:28:26;;;;;;;27.50;13.13;;;;;;;4.44;71.55;94129.47;5003984;28;20018;-79
2023/01/14 06:30:52;;;;;;;27.80;13.95;;;;;;;4.39;71.41;94138.16;5003786;28;20022;-78
2023/01/14 06:33:17;;;;;;;26.58;13.43;;;;;;;4.38;71.81;94136.59;5003572;28;20049;-79
2023/01/14 06:35:44;;;;;;;24.77;12.55;;;;;;;4.39;71.59;94134.72;5003742;28;20113;-78
2023/01/14 06:38:11;;;;;;;23.85;11.77;;;;;;;4.37;71.82;94131.56;5003713;28;20046;-78
2023/01/14 06:40:38;;;;;;;37.88;13.52;;;;;;;4.40;72.34;94129.19;5003702;28;20030;-78
2023/01/14 06:43:05;;;;;;;23.90;12.65;;;;;;;4.46;72.36;94135.25;5002409;28;20026;-78
2023/01/14 06:45:30;;;;;;;24.85;12.90;;;;;;;4.49;72.20;94137.34;5003717;28;20274;-79
2023/01/14 06:47:56;;;;;;;26.10;13.30;;;;;;;4.50;72.00;94136.31;5003347;28;20029;-79
2023/01/14 06:50:21;;;;;;;23.23;12.73;;;;;;;4.59;71.78;94139.19;5003300;28;20022;-79
2023/01/14 06:52:48;;;;;;;26.02;13.90;;;;;;;4.56;71.92;94135.22;5003496;28;20022;-79
2023/01/14 06:55:15;;;;;;;39.17;20.33;;;;;;;4.53;72.07;94130.47;5003421;28;20224;-78
2023/01/14 06:57:42;;;;;;;37.42;17.67;;;;;;;4.56;72.09;94139.69;5003209;28;20045;-78
2023/01/14 07:00:09;;;;;;;31.35;15.65;;;;;;;4.56;71.92;94135.22;5002101;28;20347;-78
2023/01/14 07:02:35;;;;;;;38.30;15.15;;;;;;;4.58;71.84;94134.94;5001967;28;20026;-78
2023/01/14 07:05:00;;;;;;;37.03;17.13;;;;;;;4.56;72.73;94143.16;5003519;28;20094;-77
2023/01/14 07:07:26;;;;;;;37.65;18.58;;;;;;;4.53;73.00;94146.31;5003194;28;20054;-77
2023/01/14 07:09:51;;;;;;;51.78;22.70;;;;;;;4.51;73.33;94153.72;5003409;28;20025;-77
2023/01/14 07:12:17;;;;;;;44.90;22.13;;;;;;;4.52;73.25;94155.31;5003025;28;20215;-77
2023/01/14 07:14:42;;;;;;;69.82;28.95;;;;;;;4.51;73.36;94152.94;5003069;28;20073;-77
2023/01/14 07:17:07;;;;;;;38.67;19.50;;;;;;;4.41;73.63;94157.16;5003320;28;20102;-78
2023/01/14 07:19:33;;;;;;;32.72;17.33;;;;;;;4.41;73.64;94157.16;5007305;28;20022;-77
2023/01/14 07:21:58;;;;;;;41.30;19.35;;;;;;;4.39;73.70;94169.81;5007097;28;20037;-77
2023/01/14 07:24:24;;;;;;;34.90;17.75;;;;;;;4.37;73.99;94160.59;5007054;28;20030;-77
2023/01/14 07:26:49;;;;;;;39.53;18.95;;;;;;;4.38;74.02;94164.84;5007205;28;20026;-78
2023/01/14 07:29:15;;;;;;;34.05;17.42;;;;;;;4.42;73.41;94171.16;5007306;28;20026;-78
2023/01/14 07:31:41;;;;;;;32.40;15.52;;;;;;;4.27;73.57;94168.53;5007259;28;20098;-80
2023/01/14 07:34:07;;;;;;;34.97;17.83;;;;;;;4.31;73.58;94169.59;5007105;28;20033;-78
2023/01/14 07:36:32;;;;;;;35.35;16.33;;;;;;;4.35;73.47;94171.41;5007075;28;20050;-79
2023/01/14 07:38:58;;;;;;;36.65;19.15;;;;;;;4.37;73.43;94174.56;5006972;28;20057;-78
2023/01/14 07:41:23;;;;;;;34.45;17.90;;;;;;;4.46;73.53;94174.03;5006772;28;20050;-79
2023/01/14 07:43:49;;;;;;;32.47;17.50;;;;;;;4.53;73.44;94171.94;5006745;28;20101;-79
2023/01/14 07:46:15;;;;;;;32.95;16.33;;;;;;;4.53;73.49;94172.72;5006805;28;20035;-79
2023/01/14 07:48:42;;;;;;;33.35;17.15;;;;;;;4.56;73.37;94179.28;5006718;28;20145;-79
2023/01/14 07:51:12;;;;;;;30.42;16.05;;;;;;;4.57;73.38;94180.91;5005258;28;20029;-79
2023/01/14 07:53:38;;;;;;;33.17;16.58;;;;;;;4.65;73.14;94180.34;5006697;28;20216;-79
2023/01/14 07:56:06;;;;;;;30.67;16.38;;;;;;;4.72;72.92;94183.53;5006541;28;20027;-80
2023/01/14 07:58:32;;;;;;;40.80;16.83;;;;;;;4.83;72.61;94181.63;5006607;28;20022;-82
2023/01/14 08:00:58;;;;;;;36.13;16.52;;;;;;;4.93;72.51;94171.03;5006345;28;20026;-82
2023/01/14 08:03:24;;;;;;;41.10;18.35;;;;;;;5.02;72.39;94174.69;5006362;28;20034;-80
2023/01/14 08:05:51;;;;;;;40.92;20.05;;;;;;;5.14;72.02;94176.25;5006419;28;20322;-80
2023/01/14 08:08:17;;;;;;;40.78;20.85;;;;;;;5.22;72.42;94173.03;5006252;28;20034;-80
2023/01/14 08:10:42;;;;;;;49.78;24.10;;;;;;;5.32;72.23;94183.56;5006018;28;20105;-81
2023/01/14 08:13:11;;;;;;;49.30;24.13;;;;;;;5.39;72.10;94172.69;5006250;28;20034;-80
2023/01/14 08:15:37;;;;;;;46.13;24.48;;;;;;;5.53;72.00;94180.81;5006177;28;20023;-82
2023/01/14 08:18:02;;;;;;;53.30;25.55;;;;;;;5.61;71.59;94178.38;5006294;28;20033;-80
2023/01/14 08:20:28;;;;;;;50.78;26.13;;;;;;;5.70;71.39;94191.81;5006076;28;20018;-89
2023/01/14 08:22:57;;;;;;;51.35;26.95;;;;;;;5.82;71.67;94199.41;5006164;28;20097;-89
2023/01/14 08:25:23;;;;;;;50.33;23.70;;;;;;;5.87;71.59;94186.16;5004877;28;20422;-85
2023/01/14 08:27:48;;;;;;;44.13;20.75;;;;;;;5.94;71.44;94193.78;5005950;28;20025;-87
2023/01/14 08:30:14;;;;;;;31.73;17.33;;;;;;;6.02;70.97;94201.97;5004981;28;20033;-84
2023/01/14 08:32:39;;;;;;;29.75;16.33;;;;;;;6.14;69.44;94196.31;5006100;28;20018;-85
2023/01/14 08:35:05;;;;;;;29.52;15.27;;;;;;;6.19;68.49;94196.28;5005967;28;20313;-88
2023/01/14 08:37:31;;;;;;;21.45;12.40;;;;;;;6.27;66.99;94199.38;5005488;28;20125;-88
2023/01/14 08:39:56;;;;;;;23.63;11.70;;;;;;;6.33;66.11;94193.78;5005466;28;20026;-87
2023/01/14 08:42:22;;;;;;;19.17;12.20;;;;;;;6.34;66.40;94198.00;5005416;28;20028;-86
2023/01/14 08:44:47;;;;;;;23.45;11.70;;;;;;;6.44;66.15;94197.13;5005807;28;20021;-88
2023/01/14 08:47:13;;;;;;;25.83;12.23;;;;;;;6.47;64.97;94196.56;5005635;28;20065;-83
2023/01/14 08:49:38;;;;;;;14.20;7.90;;;;;;;6.47;64.30;94199.22;5006186;28;20030;-87
2023/01/14 08:52:04;;;;;;;14.43;8.32;;;;;;;6.51;63.77;94202.88;5004721;28;20093;-86
2023/01/14 08:54:29;;;;;;;15.98;9.27;;;;;;;6.54;63.45;94198.91;5005513;28;20043;-87
2023/01/14 08:56:55;;;;;;;16.48;8.93;;;;;;;6.56;63.08;94202.06;5005405;28;20022;-86
2023/01/14 08:59:21;;;;;;;13.88;8.32;;;;;;;6.55;62.87;94206.56;5005094;28;20025;-79
2023/01/14 09:01:46;;;;;;;11.93;7.50;;;;;;;6.55;62.20;94203.13;5005205;28;20077;-79
2023/01/14 09:04:12;;;;;;;12.50;7.70;;;;;;;6.58;62.29;94200.72;5005225;28;20037;-79
2023/01/14 09:17:04;;;;;;;18.13;7.95;;;;;;;6.60;62.58;94190.63;5004508;28;20052;-79
2023/01/14 09:17:40;;;;;;;10.60;7.03;;;;;;;6.62;60.64;94171.81;5004769;28;20090;-79
2023/01/14 09:20:13;;;;;;;15.57;7.68;;;;;;;6.63;60.69;94178.69;5004920;28;20022;-79
2023/01/14 09:22:39;;;;;;;15.55;8.15;;;;;;;6.67;60.34;94177.03;5004749;28;20026;-79
2023/01/14 09:25:05;;;;;;;18.27;8.07;;;;;;;6.71;60.54;94171.97;5004834;28;20032;-79
2023/01/14 09:27:31;;;;;;;16.38;9.18;;;;;;;6.77;60.30;94170.84;5004807;28;20073;-79
2023/01/14 09:29:57;;;;;;;15.38;7.15;;;;;;;6.80;60.28;94170.31;5004523;28;20026;-79
2023/01/14 09:32:23;;;;;;;11.20;5.82;;;;;;;6.76;59.56;94161.34;5004152;28;20331;-79
2023/01/14 09:34:50;;;;;;;12.68;7.40;;;;;;;6.74;59.97;94166.13;5004442;28;20026;-79
2023/01/14 09:37:21;;;;;;;13.02;6.93;;;;;;;6.85;60.38;94167.59;5004237;28;20046;-79
2023/01/14 09:39:47;;;;;;;19.20;8.05;;;;;;;6.98;60.30;94164.28;5003877;28;20030;-80
2023/01/14 09:42:18;;;;;;;13.98;8.25;;;;;;;7.15;60.33;94169.13;5003996;28;20029;-80
2023/01/14 09:44:44;;;;;;;10.60;6.35;;;;;;;7.39;58.99;94161.13;5004101;28;20243;-80
2023/01/14 09:47:17;;;;;;;12.75;6.47;;;;;;;7.52;57.37;94172.09;5004073;28;20030;-80
2023/01/14 09:49:44;;;;;;;12.68;7.38;;;;;;;7.56;57.20;94157.19;5004048;28;20259;-80
2023/01/14 09:52:45;;;;;;;10.38;5.32;;;;;;;7.67;57.72;94161.28;5003786;28;20045;-79
2023/01/14 09:55:29;;;;;;;10.18;5.88;;;;;;;7.79;56.30;94161.63;5001429;28;20134;-79
2023/01/14 09:58:00;;;;;;;11.48;5.85;;;;;;;7.76;56.11;94158.78;5003784;28;20060;-79
2023/01/14 10:00:28;;;;;;;10.23;5.70;;;;;;;7.60;56.24;94160.84;5003732;28;20033;-79
2023/01/14 10:03:15;;;;;;;13.98;5.75;;;;;;;7.56;56.66;94154.56;5004044;28;20054;-79
2023/01/14 10:05:45;;;;;;;12.45;6.63;;;;;;;7.51;56.60;94154.59;5004096;28;20101;-79
2023/01/14 10:08:14;;;;;;;11.63;5.78;;;;;;;7.48;56.92;94149.88;5003885;28;20106;-79
2023/01/14 10:10:44;;;;;;;11.30;6.38;;;;;;;7.52;57.13;94148.25;5003709;28;20094;-81
2023/01/14 10:13:36;;;;;;;14.65;7.43;;;;;;;7.50;57.11;94151.16;5003819;28;20045;-80
2023/01/14 10:16:09;;;;;;;17.03;7.60;;;;;;;7.44;56.68;94150.44;5003522;28;20038;-82
2023/01/14 10:18:51;;;;;;;11.85;7.50;;;;;;;7.43;57.08;94148.88;5003711;28;20366;-78
2023/01/14 10:21:57;;;;;;;16.63;8.07;;;;;;;7.40;57.37;94143.34;5003614;28;20026;-82
2023/01/14 10:24:23;;;;;;;20.05;7.30;;;;;;;7.30;57.03;94138.97;4990639;28;20030;-82
2023/01/14 10:26:50;;;;;;;15.73;7.88;;;;;;;7.24;57.12;94142.75;5002559;28;20132;-82
2023/01/14 10:29:18;;;;;;;16.38;8.20;;;;;;;7.00;57.99;94146.25;5003552;28;20029;-82
2023/01/14 10:31:53;;;;;;;19.40;7.63;;;;;;;7.03;58.58;94137.72;5002515;28;20030;-82
2023/01/14 10:34:26;;;;;;;14.13;7.55;;;;;;;7.07;58.92;94129.19;5001414;28;20030;-82
2023/01/14 10:36:52;;;;;;;14.25;7.75;;;;;;;7.23;59.29;94128.72;5003489;28;20046;-83
2023/01/14 10:39:17;;;;;;;18.63;8.48;;;;;;;7.40;58.84;94135.41;5003493;28;20216;-82
2023/01/14 10:41:49;;;;;;;16.45;8.27;;;;;;;7.50;58.36;94137.13;5003210;28;20026;-82
2023/01/14 10:44:23;;;;;;;16.27;7.70;;;;;;;7.62;57.62;94134.84;5003236;28;20026;-82
2023/01/14 10:46:51;;;;;;;14.23;7.88;;;;;;;7.71;57.01;94127.78;5000400;28;20308;-82
2023/01/14 10:49:21;;;;;;;15.45;7.63;;;;;;;7.84;56.42;94139.56;5001442;28;20038;-82
2023/01/14 10:51:49;;;;;;;13.63;7.63;;;;;;;7.80;55.64;94126.06;5001502;28;20080;-82
2023/01/14 10:54:18;;;;;;;11.25;6.63;;;;;;;7.80;55.79;94131.38;5001113;28;20312;-82
2023/01/14 10:56:57;;;;;;;14.77;8.73;;;;;;;7.79;56.06;94124.47;5001344;28;20042;-82
2023/01/14 10:59:31;;;;;;;18.50;8.90;;;;;;;7.80;56.46;94120.00;5000250;28;20053;-82
2023/01/14 11:01:57;;;;;;;20.98;10.30;;;;;;;7.88;56.16;94110.59;5001397;28;20057;-83
2023/01/14 11:04:28;;;;;;;29.70;12.73;;;;;;;7.75;56.67;94117.41;5003169;28;20022;-83
2023/01/14 11:06:54;;;;;;;23.42;12.40;;;;;;;7.66;56.79;94109.31;5003058;28;20053;-82
2023/01/14 11:09:29;;;;;;;22.50;10.23;;;;;;;7.40;57.32;94104.34;5002175;28;20019;-82
2023/01/14 11:11:56;;;;;;;22.00;11.35;;;;;;;7.21;57.89;94093.75;5002939;28;20022;-82
2023/01/14 11:14:24;;;;;;;31.65;12.73;;;;;;;7.05;58.35;94100.31;5002896;28;20090;-82
2023/01/14 11:16:50;;;;;;;20.25;11.80;;;;;;;6.88;58.81;94100.81;5002869;28;20273;-82
2023/01/14 11:19:15;;;;;;;22.60;12.38;;;;;;;6.81;59.72;94105.66;5003098;28;20037;-82
2023/01/14 11:21:43;;;;;;;29.77;13.90;;;;;;;6.65;59.82;94112.19;5002985;28;20034;-82
2023/01/14 11:24:30;;;;;;;27.27;14.48;;;;;;;6.65;60.45;94104.25;5003120;28;20037;-83
2023/01/14 11:27:05;;;;;;;31.77;17.55;;;;;;;6.81;60.21;94100.34;5002993;28;20068;-82
2023/01/14 11:29:34;;;;;;;51.35;19.73;;;;;;;6.95;61.13;94111.06;5002840;28;20335;-82
2023/01/14 11:32:48;;;;;;;33.35;15.20;;;;;;;6.95;60.25;94106.53;5002953;28;20264;-82
2023/01/14 11:35:24;;;;;;;41.22;17.20;;;;;;;6.95;60.49;94108.41;5002951;28;20030;-83
2023/01/14 11:37:53;;;;;;;46.47;20.40;;;;;;;6.94;60.64;94112.09;5002358;28;20293;-82
2023/01/14 11:43:32;;;;;;;39.97;20.08;;;;;;;6.95;60.95;94109.19;5002740;28;20041;-82
2023/01/14 11:46:12;;;;;;;42.42;21.80;;;;;;;6.93;61.07;94119.28;5001475;28;20026;-82
2023/01/14 11:48:40;;;;;;;41.55;19.40;;;;;;;6.95;60.85;94111.06;5002776;28;20098;-82
2023/01/14 11:51:17;;;;;;;33.25;18.23;;;;;;;6.87;61.27;94120.41;5001317;28;20022;-82
2023/01/14 11:53:45;;;;;;;36.00;19.00;;;;;;;6.80;61.36;94123.41;5002643;28;20030;-82
2023/01/14 11:56:16;;;;;;;34.97;18.50;;;;;;;6.56;62.27;94117.31;5002618;28;20347;-82
2023/01/14 11:58:42;;;;;;;30.63;17.25;;;;;;;6.46;62.73;94112.91;5002731;28;20054;-82
2023/01/14 12:01:29;;;;;;;35.60;19.40;;;;;;;6.32;63.64;94119.94;5002436;28;20034;-82
2023/01/14 12:04:15;;;;;;;44.65;18.70;;;;;;;6.31;63.70;94121.81;5003422;28;20224;-82
2023/01/14 12:06:58;;;;;;;38.15;17.35;;;;;;;6.34;63.83;94128.38;5006132;28;20042;-82